createdAt,value
2022-09-12T00:02:07.323Z,1.20
2022-09-12T00:04:37.025Z,1.37
2022-09-12T00:07:06.325Z,1.10
2022-09-12T00:09:35.275Z,1.37
2022-09-12T00:12:04.841Z,0.97
2022-09-12T00:14:34.423Z,1.03
2022-09-12T00:17:15.781Z,1.00
2022-09-12T00:19:46.225Z,1.07
2022-09-12T00:22:15.855Z,0.83
2022-09-12T00:24:45.347Z,1.00
2022-09-12T00:27:14.124Z,1.00
2022-09-12T00:29:46.090Z,1.50
2022-09-12T00:32:18.375Z,1.20
2022-09-12T00:34:48.976Z,1.10
2022-09-12T00:37:17.902Z,1.00
2022-09-12T00:39:46.831Z,1.00
2022-09-12T00:42:15.897Z,1.20
2022-09-12T00:44:54.985Z,1.30
2022-09-12T00:47:30.641Z,1.13
2022-09-12T00:50:07.034Z,1.10
2022-09-12T00:52:41.522Z,1.13
2022-09-12T00:55:14.817Z,1.33
2022-09-12T00:57:51.107Z,1.00
2022-09-12T01:00:23.297Z,0.73
2022-09-12T01:02:56.551Z,0.90
2022-09-12T01:05:29.011Z,0.93
2022-09-12T01:07:59.246Z,1.47
2022-09-12T01:10:28.412Z,1.10
2022-09-12T01:12:57.339Z,1.03
2022-09-12T01:15:26.244Z,1.03
2022-09-12T01:18:10.745Z,1.00
2022-09-12T01:21:16.650Z,0.70
2022-09-12T01:24:34.659Z,1.27
2022-09-12T01:27:31.623Z,0.97
2022-09-12T01:30:56.406Z,0.90
2022-09-12T01:33:42.996Z,0.93
2022-09-12T01:36:38.294Z,1.20
2022-09-12T01:39:15.758Z,1.03
2022-09-12T01:41:56.191Z,0.93
2022-09-12T01:44:37.255Z,1.03
2022-09-12T01:47:14.616Z,1.13
2022-09-12T01:49:53.144Z,0.80
2022-09-12T01:52:27.179Z,1.27
2022-09-12T01:55:05.434Z,1.40
2022-09-12T01:57:45.752Z,1.17
2022-09-12T02:00:15.719Z,0.87
2022-09-12T02:02:53.118Z,1.00
2022-09-12T02:05:29.166Z,1.20
2022-09-12T02:08:05.800Z,0.80
2022-09-12T02:10:42.708Z,0.97
2022-09-12T02:13:17.060Z,1.10
2022-09-12T02:15:51.257Z,0.93
2022-09-12T02:18:23.120Z,1.17
2022-09-12T02:20:54.845Z,1.03
2022-09-12T02:23:29.101Z,1.10
2022-09-12T02:26:03.783Z,1.17
2022-09-12T02:28:38.851Z,0.90
2022-09-12T02:31:18.580Z,1.00
2022-09-12T02:34:02.081Z,0.93
2022-09-12T02:36:40.770Z,0.83
2022-09-12T02:39:09.953Z,1.30
2022-09-12T02:41:39.294Z,1.30
2022-09-12T02:44:08.462Z,1.20
2022-09-12T02:46:44.282Z,1.10
2022-09-12T02:49:14.732Z,1.60
2022-09-12T02:51:44.186Z,0.97
2022-09-12T02:54:13.866Z,1.27
2022-09-12T02:56:45.541Z,0.93
2022-09-12T02:59:21.239Z,0.83
2022-09-12T03:02:16.391Z,0.80
2022-09-12T03:05:10.010Z,1.13
2022-09-12T03:08:02.310Z,0.80
2022-09-12T03:10:43.868Z,1.10
2022-09-12T03:13:23.276Z,1.10
2022-09-12T03:16:04.893Z,0.90
2022-09-12T03:18:52.947Z,0.90
2022-09-12T03:21:30.584Z,1.10
2022-09-12T03:24:13.550Z,1.03
2022-09-12T03:26:48.647Z,1.20
2022-09-12T03:29:19.553Z,1.00
2022-09-12T03:31:53.683Z,1.50
2022-09-12T03:34:25.431Z,1.00
2022-09-12T03:36:57.125Z,1.10
2022-09-12T03:39:28.042Z,1.40
2022-09-12T03:41:59.475Z,1.40
2022-09-12T03:44:28.795Z,1.13
2022-09-12T03:46:57.891Z,1.00
2022-09-12T03:49:27.046Z,1.20
2022-09-12T03:51:57.284Z,0.90
2022-09-12T03:54:27.040Z,0.90
2022-09-12T03:56:56.172Z,1.20
2022-09-12T03:59:25.146Z,1.03
2022-09-12T04:01:54.316Z,1.00
2022-09-12T04:04:25.377Z,1.07
2022-09-12T04:06:54.379Z,1.70
2022-09-12T04:09:27.512Z,1.07
2022-09-12T04:11:56.452Z,1.00
2022-09-12T04:14:25.776Z,1.10
2022-09-12T04:16:55.176Z,1.23
2022-09-12T04:19:26.869Z,1.03
2022-09-12T04:21:55.773Z,1.00
2022-09-12T04:24:27.986Z,0.80
2022-09-12T04:26:56.959Z,1.13
2022-09-12T04:29:29.613Z,1.30
2022-09-12T04:31:59.115Z,1.30
2022-09-12T04:34:31.337Z,0.97
2022-09-12T04:37:00.312Z,1.23
2022-09-12T04:39:30.872Z,1.13
2022-09-12T04:42:00.017Z,1.30
2022-09-12T04:44:28.882Z,1.37
2022-09-12T04:46:57.992Z,1.20
2022-09-12T04:49:26.983Z,1.10
2022-09-12T04:51:56.295Z,1.27
2022-09-12T04:54:25.146Z,1.30
2022-09-12T04:56:56.121Z,1.10
2022-09-12T04:59:25.347Z,1.33
2022-09-12T05:01:54.460Z,1.37
2022-09-12T05:04:23.537Z,1.30
2022-09-12T05:06:52.822Z,1.07
2022-09-12T05:09:21.924Z,1.43
2022-09-12T05:12:06.163Z,1.47
2022-09-12T05:14:37.202Z,1.77
2022-09-12T05:17:07.144Z,1.53
2022-09-12T05:19:36.941Z,1.70
2022-09-12T05:22:06.816Z,2.30
2022-09-12T05:24:35.702Z,1.50
2022-09-12T05:27:04.882Z,1.93
2022-09-12T05:29:34.237Z,1.80
2022-09-12T05:32:04.927Z,1.60
2022-09-12T05:34:41.814Z,2.20
2022-09-12T05:37:12.129Z,1.80
2022-09-12T05:39:41.512Z,2.60
2022-09-12T05:42:10.518Z,2.80
2022-09-12T05:44:39.054Z,2.43
2022-09-12T05:47:12.997Z,2.53
2022-09-12T05:49:41.886Z,2.00
2022-09-12T05:52:11.233Z,1.60
2022-09-12T05:54:41.931Z,1.80
2022-09-12T05:57:11.535Z,2.20
2022-09-12T05:59:43.102Z,2.00
2022-09-12T06:02:14.850Z,2.00
2022-09-12T06:04:44.019Z,2.00
2022-09-12T06:07:13.429Z,2.13
2022-09-12T06:09:45.533Z,1.63
2022-09-12T06:12:16.427Z,2.30
2022-09-12T06:14:48.315Z,2.47
2022-09-12T06:17:22.243Z,2.13
2022-09-12T06:19:51.701Z,2.37
2022-09-12T06:22:25.086Z,2.00
2022-09-12T06:24:58.700Z,2.20
2022-09-12T06:27:28.199Z,1.87
2022-09-12T06:29:58.241Z,2.07
2022-09-12T06:32:32.507Z,3.17
2022-09-12T06:35:01.779Z,2.10
2022-09-12T06:37:34.241Z,2.80
2022-09-12T06:40:03.519Z,2.20
2022-09-12T06:42:34.263Z,2.20
2022-09-12T06:45:03.523Z,2.33
2022-09-12T06:47:34.111Z,2.40
2022-09-12T06:50:03.812Z,2.37
2022-09-12T06:52:33.238Z,2.30
2022-09-12T06:55:02.484Z,2.20
2022-09-12T06:58:02.644Z,2.37
2022-09-12T07:00:34.772Z,1.77
2022-09-12T07:03:05.179Z,1.83
2022-09-12T07:05:35.826Z,2.47
2022-09-12T07:08:04.960Z,2.20
2022-09-12T07:10:35.065Z,1.87
2022-09-12T07:13:06.059Z,2.07
2022-09-12T07:15:37.486Z,2.47
2022-09-12T07:18:08.431Z,2.10
2022-09-12T07:20:38.470Z,2.77
2022-09-12T07:23:09.119Z,2.40
2022-09-12T07:25:37.991Z,2.40
2022-09-12T07:28:07.848Z,2.20
2022-09-12T07:30:40.391Z,2.00
2022-09-12T07:33:12.214Z,2.10
2022-09-12T07:35:41.869Z,2.37
2022-09-12T07:38:11.206Z,2.50
2022-09-12T07:40:40.988Z,2.57
2022-09-12T07:43:10.961Z,2.20
2022-09-12T07:45:42.561Z,2.10
2022-09-12T07:48:14.510Z,2.50
2022-09-12T07:50:45.220Z,2.33
2022-09-12T07:53:16.060Z,1.83
2022-09-12T07:55:45.783Z,1.93
2022-09-12T07:58:17.212Z,2.20
2022-09-12T08:00:46.233Z,2.40
2022-09-12T08:03:16.532Z,2.20
2022-09-12T08:05:45.463Z,1.73
2022-09-12T08:08:15.860Z,3.10
2022-09-12T08:10:44.968Z,2.80
2022-09-12T08:13:13.941Z,2.17
2022-09-12T08:15:43.309Z,2.40
2022-09-12T08:18:12.332Z,3.57
2022-09-12T08:20:43.449Z,2.57
2022-09-12T08:23:12.611Z,2.77
2022-09-12T08:25:41.720Z,2.20
2022-09-12T08:28:10.665Z,2.30
2022-09-12T08:30:39.747Z,2.30
2022-09-12T08:33:09.280Z,2.90
2022-09-12T08:35:38.555Z,1.93
2022-09-12T08:38:09.383Z,1.77
2022-09-12T08:40:52.276Z,2.40
2022-09-12T08:43:39.303Z,1.80
2022-09-12T08:46:15.351Z,2.17
2022-09-12T08:48:47.715Z,1.70
2022-09-12T08:51:21.129Z,2.00
2022-09-12T08:53:54.752Z,1.60
2022-09-12T08:56:28.450Z,1.90
2022-09-12T08:59:00.719Z,2.30
2022-09-12T09:01:35.087Z,1.27
2022-09-12T09:04:28.956Z,1.30
2022-09-12T09:07:16.033Z,1.60
2022-09-12T09:10:02.104Z,1.80
2022-09-12T09:12:42.017Z,1.53
2022-09-12T09:15:36.905Z,1.13
2022-09-12T09:18:13.905Z,1.77
2022-09-12T09:20:51.308Z,1.90
2022-09-12T09:23:27.352Z,1.87
2022-09-12T09:26:02.944Z,1.63
2022-09-12T09:28:40.011Z,2.00
2022-09-12T09:31:16.509Z,1.50
2022-09-12T09:33:48.261Z,1.60
2022-09-12T09:36:25.216Z,1.93
2022-09-12T09:39:03.114Z,1.80
2022-09-12T09:41:47.063Z,1.70
2022-09-12T09:44:16.167Z,2.37
2022-09-12T09:46:45.545Z,1.73
2022-09-12T09:49:17.794Z,2.30
2022-09-12T09:51:47.525Z,1.50
2022-09-12T09:54:26.152Z,1.53
2022-09-12T09:56:57.442Z,2.67
2022-09-12T09:59:30.845Z,2.13
2022-09-12T10:02:04.102Z,1.83
2022-09-12T10:04:41.057Z,2.00
2022-09-12T10:07:21.827Z,2.00
2022-09-12T10:10:16.367Z,1.70
2022-09-12T10:12:47.684Z,1.93
2022-09-12T10:15:21.465Z,2.60
2022-09-12T10:17:52.972Z,2.50
2022-09-12T10:20:35.074Z,2.03
2022-09-12T10:23:23.264Z,1.60
2022-09-12T10:26:07.281Z,2.20
2022-09-12T10:28:45.278Z,2.00
2022-09-12T10:31:21.490Z,2.10
2022-09-12T10:33:53.998Z,2.03
2022-09-12T10:36:23.702Z,1.80
2022-09-12T10:38:55.858Z,2.17
2022-09-12T10:41:25.298Z,2.87
2022-09-12T10:44:10.190Z,1.90
2022-09-12T10:46:40.075Z,2.13
2022-09-12T10:49:28.323Z,2.10
2022-09-12T10:52:00.710Z,1.77
2022-09-12T10:54:30.183Z,1.73
2022-09-12T10:57:36.149Z,2.30
2022-09-12T11:00:15.901Z,1.87
2022-09-12T11:03:00.366Z,2.63
2022-09-12T11:05:56.601Z,1.83
2022-09-12T11:08:57.067Z,2.20
2022-09-12T11:11:45.908Z,2.43
2022-09-12T11:14:33.922Z,2.00
2022-09-12T11:17:25.084Z,1.80
2022-09-12T11:20:18.656Z,1.90
2022-09-12T11:23:47.012Z,1.97
2022-09-12T11:26:32.800Z,2.07
2022-09-12T11:29:14.371Z,1.90
2022-09-12T11:32:21.247Z,1.60
2022-09-12T11:35:03.731Z,1.70
2022-09-12T11:37:51.838Z,1.37
2022-09-12T11:40:31.495Z,1.63
2022-09-12T11:43:08.258Z,1.80
2022-09-12T11:45:45.681Z,2.00
2022-09-12T11:48:28.868Z,2.30
2022-09-12T11:51:01.980Z,1.63
2022-09-12T11:53:41.319Z,1.80
2022-09-12T11:56:19.291Z,2.00
2022-09-12T11:59:00.923Z,1.77
2022-09-12T12:01:48.195Z,1.70
2022-09-12T12:04:34.064Z,1.90
2022-09-12T12:07:14.479Z,2.40
2022-09-12T12:10:10.297Z,2.37
2022-09-12T12:13:05.658Z,1.50
2022-09-12T12:15:53.034Z,2.00
2022-09-12T12:18:26.561Z,2.00
2022-09-12T12:20:57.809Z,1.60
2022-09-12T12:23:35.578Z,1.70
2022-09-12T12:26:06.051Z,1.83
2022-09-12T12:28:59.892Z,1.93
2022-09-12T12:31:32.240Z,1.80
2022-09-12T12:34:28.591Z,1.87
2022-09-12T12:37:05.504Z,1.60
2022-09-12T12:40:06.387Z,2.03
2022-09-12T12:43:08.389Z,1.83
2022-09-12T12:46:04.927Z,1.53
2022-09-12T12:48:58.349Z,2.00
2022-09-12T12:51:51.389Z,1.87
2022-09-12T12:54:48.871Z,1.73
2022-09-12T12:57:30.165Z,2.37
2022-09-12T13:00:09.011Z,1.80
2022-09-12T13:02:43.086Z,2.10
2022-09-12T13:05:22.169Z,1.70
2022-09-12T13:07:59.537Z,1.83
2022-09-12T13:10:31.721Z,1.90
2022-09-12T13:13:06.535Z,1.67
2022-09-12T13:15:53.051Z,1.90
2022-09-12T13:18:29.239Z,1.90
2022-09-12T13:21:09.578Z,1.87
2022-09-12T13:23:39.591Z,2.00
2022-09-12T13:26:14.347Z,1.87
2022-09-12T13:28:45.165Z,1.93
2022-09-12T13:31:23.203Z,1.70
2022-09-12T13:33:56.606Z,1.73
2022-09-12T13:37:14.750Z,1.90
2022-09-12T13:39:50.704Z,1.90
2022-09-12T13:42:41.996Z,2.00
2022-09-12T13:45:20.817Z,1.60
2022-09-12T13:47:58.474Z,1.57
2022-09-12T13:50:32.444Z,1.87
2022-09-12T13:53:07.568Z,1.57
2022-09-12T13:55:39.192Z,1.83
2022-09-12T13:58:18.227Z,2.10
2022-09-12T14:01:02.182Z,1.83
2022-09-12T14:03:54.733Z,1.73
2022-09-12T14:06:28.791Z,1.73
2022-09-12T14:09:01.630Z,1.90
2022-09-12T14:11:34.016Z,1.60
2022-09-12T14:14:17.261Z,2.30
2022-09-12T14:16:48.032Z,1.57
2022-09-12T14:19:20.739Z,1.53
2022-09-12T14:21:50.984Z,1.60
2022-09-12T14:24:24.478Z,1.90
2022-09-12T14:26:58.928Z,1.93
2022-09-12T14:32:37.889Z,1.70
2022-09-12T14:35:24.051Z,1.90
2022-09-12T14:37:55.128Z,1.90
2022-09-12T14:40:27.145Z,2.40
2022-09-12T14:43:00.636Z,2.03
2022-09-12T14:45:32.949Z,2.37
2022-09-12T14:48:06.015Z,1.97
2022-09-12T14:50:37.470Z,2.30
2022-09-12T14:53:12.569Z,1.93
2022-09-12T14:55:49.971Z,1.90
2022-09-12T14:58:28.770Z,1.57
2022-09-12T15:01:00.161Z,1.93
2022-09-12T15:03:33.940Z,1.73
2022-09-12T15:06:04.076Z,1.87
2022-09-12T15:08:41.673Z,1.57
2022-09-12T15:11:10.956Z,2.13
2022-09-12T15:13:42.505Z,2.20
2022-09-12T15:16:13.036Z,2.10
2022-09-12T15:18:43.515Z,1.87
2022-09-12T15:21:18.741Z,1.57
2022-09-12T15:23:50.137Z,2.03
2022-09-12T15:26:21.884Z,2.10
2022-09-12T15:28:51.414Z,2.00
2022-09-12T15:31:26.110Z,1.70
2022-09-12T15:33:58.827Z,1.50
2022-09-12T15:36:29.653Z,2.00
2022-09-12T15:39:01.518Z,2.30
2022-09-12T15:41:35.845Z,2.20
2022-09-12T15:44:08.133Z,1.90
2022-09-12T15:46:37.547Z,1.97
2022-09-12T15:49:08.310Z,1.93
2022-09-12T15:52:00.209Z,1.90
2022-09-12T15:57:52.128Z,2.03
2022-09-12T16:00:21.565Z,2.17
2022-09-12T16:02:53.214Z,2.30
2022-09-12T16:05:26.532Z,14.10
2022-09-12T16:07:56.923Z,2.30
2022-09-12T16:10:29.218Z,1.90
2022-09-12T16:13:01.066Z,1.90
2022-09-12T16:15:30.563Z,1.60
2022-09-12T16:17:59.939Z,1.90
2022-09-12T16:20:30.994Z,1.83
2022-09-12T16:23:01.400Z,2.10
2022-09-12T16:25:31.980Z,2.10
2022-09-12T16:28:01.733Z,1.97
2022-09-12T16:30:30.627Z,2.60
2022-09-12T16:32:59.951Z,2.20
2022-09-12T16:35:35.525Z,2.40
2022-09-12T16:38:04.393Z,2.17
2022-09-12T16:40:33.446Z,1.93
2022-09-12T16:43:02.710Z,2.10
2022-09-12T16:45:31.958Z,2.10
2022-09-12T16:48:01.275Z,1.80
2022-09-12T16:50:31.741Z,1.37
2022-09-12T16:53:00.823Z,1.40
2022-09-12T16:55:32.541Z,1.40
2022-09-12T16:58:02.690Z,2.00
2022-09-12T17:00:33.826Z,2.00
2022-09-12T17:03:03.047Z,2.07
2022-09-12T17:05:34.043Z,2.13
2022-09-12T17:08:04.013Z,1.87
2022-09-12T17:10:33.775Z,2.00
2022-09-12T17:13:04.448Z,2.33
2022-09-12T17:15:33.809Z,1.80
2022-09-12T17:18:03.269Z,1.70
2022-09-12T17:20:37.603Z,2.10
2022-09-12T17:23:09.748Z,1.93
2022-09-12T17:25:41.602Z,2.27
2022-09-12T17:28:10.574Z,2.20
2022-09-12T17:30:39.722Z,2.30
2022-09-12T17:33:09.379Z,2.20
2022-09-12T17:35:42.664Z,2.33
2022-09-12T17:38:15.504Z,2.30
2022-09-12T17:40:59.150Z,2.30
2022-09-12T17:43:29.442Z,2.30
2022-09-12T17:45:59.100Z,2.17
2022-09-12T17:48:28.840Z,2.20
2022-09-12T17:50:59.945Z,2.30
2022-09-12T17:53:30.361Z,1.77
2022-09-12T17:56:06.935Z,1.80
2022-09-12T17:58:38.046Z,2.30
2022-09-12T18:01:29.456Z,2.13
2022-09-12T18:04:01.689Z,2.10
2022-09-12T18:06:36.151Z,2.43
2022-09-12T18:09:09.266Z,2.07
2022-09-12T18:11:39.187Z,2.83
2022-09-12T18:14:13.876Z,2.13
2022-09-12T18:16:43.537Z,3.20
2022-09-12T18:19:13.124Z,2.43
2022-09-12T18:21:44.622Z,3.30
2022-09-12T18:24:16.706Z,3.07
2022-09-12T18:26:46.490Z,3.17
2022-09-12T18:29:20.132Z,2.77
2022-09-12T18:31:52.536Z,2.97
2022-09-12T18:34:23.136Z,3.50
2022-09-12T18:36:56.794Z,3.57
2022-09-12T18:39:27.983Z,2.77
2022-09-12T18:41:58.258Z,2.73
2022-09-12T18:44:28.285Z,2.93
2022-09-12T18:47:00.690Z,3.23
2022-09-12T18:49:33.163Z,3.73
2022-09-12T18:52:10.022Z,3.30
2022-09-12T18:54:39.887Z,3.17
2022-09-12T18:57:10.004Z,2.87
2022-09-12T18:59:39.851Z,3.70
2022-09-12T19:02:08.972Z,2.90
2022-09-12T19:04:39.538Z,3.30
2022-09-12T19:07:10.829Z,3.00
2022-09-12T19:09:42.609Z,2.77
2022-09-12T19:12:11.879Z,3.30
2022-09-12T19:14:52.091Z,2.97
2022-09-12T19:17:21.342Z,3.87
2022-09-12T19:19:50.124Z,3.00
2022-09-12T19:22:20.533Z,3.43
2022-09-12T19:24:49.610Z,3.50
2022-09-12T19:27:18.431Z,4.33
2022-09-12T19:29:47.258Z,4.10
2022-09-12T19:32:16.592Z,3.50
2022-09-12T19:34:45.512Z,3.57
2022-09-12T19:37:16.870Z,3.27
2022-09-12T19:39:48.850Z,3.40
2022-09-12T19:42:18.381Z,3.80
2022-09-12T19:44:53.853Z,3.40
2022-09-12T19:47:26.127Z,4.20
2022-09-12T19:49:55.899Z,3.77
2022-09-12T19:52:24.992Z,3.47
2022-09-12T19:54:55.284Z,3.70
2022-09-12T19:57:24.745Z,3.77
2022-09-12T19:59:53.626Z,3.80
2022-09-12T20:02:22.546Z,3.40
2022-09-12T20:04:52.531Z,4.10
2022-09-12T20:07:21.991Z,4.00
2022-09-12T20:09:51.613Z,4.03
2022-09-12T20:12:22.761Z,3.23
2022-09-12T20:14:51.923Z,3.70
2022-09-12T20:17:21.309Z,2.80
2022-09-12T20:19:50.184Z,4.30
2022-09-12T20:22:19.253Z,4.03
2022-09-12T20:24:48.310Z,3.97
2022-09-12T20:27:17.431Z,3.23
2022-09-12T20:29:48.336Z,3.60
2022-09-12T20:32:18.415Z,4.23
2022-09-12T20:34:47.461Z,3.43
2022-09-12T20:37:16.724Z,3.27
2022-09-12T20:39:50.211Z,3.90
2022-09-12T20:42:20.108Z,3.70
2022-09-12T20:44:51.338Z,3.30
2022-09-12T20:47:20.276Z,4.13
2022-09-12T20:49:49.814Z,4.10
2022-09-12T20:52:18.867Z,4.00
2022-09-12T20:54:48.224Z,3.53
2022-09-12T20:57:17.164Z,3.20
2022-09-12T20:59:45.984Z,3.40
2022-09-12T21:02:17.643Z,3.50
2022-09-12T21:04:46.637Z,4.60
2022-09-12T21:07:15.649Z,4.27
2022-09-12T21:09:44.756Z,3.87
2022-09-12T21:12:13.565Z,4.30
2022-09-12T21:14:43.012Z,4.10
2022-09-12T21:17:11.977Z,3.83
2022-09-12T21:19:42.234Z,4.50
2022-09-12T21:22:11.539Z,4.80
2022-09-12T21:24:40.740Z,5.10
2022-09-12T21:27:09.586Z,4.77
2022-09-12T21:29:38.628Z,4.40
2022-09-12T21:32:12.146Z,4.67
2022-09-12T21:34:44.415Z,3.67
2022-09-12T21:37:13.331Z,4.90
2022-09-12T21:39:42.212Z,4.17
2022-09-12T21:42:11.346Z,4.57
2022-09-12T21:44:40.284Z,4.50
2022-09-12T21:47:09.341Z,4.93
2022-09-12T21:49:38.341Z,5.30
2022-09-12T21:52:08.749Z,5.10
2022-09-12T21:54:37.633Z,4.80
2022-09-12T21:57:08.961Z,5.73
2022-09-12T21:59:37.705Z,4.50
2022-09-12T22:02:10.319Z,4.33
2022-09-12T22:04:39.250Z,3.90
2022-09-12T22:07:10.804Z,4.50
2022-09-12T22:09:39.641Z,3.87
2022-09-12T22:12:08.953Z,4.50
2022-09-12T22:14:38.934Z,4.00
2022-09-12T22:17:08.468Z,4.33
2022-09-12T22:19:39.012Z,4.40
2022-09-12T22:22:27.131Z,4.90
2022-09-12T22:24:56.102Z,4.20
2022-09-12T22:27:25.573Z,4.30
2022-09-12T22:29:54.477Z,4.20
2022-09-12T22:32:23.357Z,4.00
2022-09-12T22:34:52.357Z,3.67
2022-09-12T22:37:22.887Z,4.60
2022-09-12T22:39:51.796Z,3.43
2022-09-12T22:42:22.359Z,4.07
2022-09-12T22:44:51.838Z,3.43
2022-09-12T22:47:21.103Z,4.40
2022-09-12T22:49:50.038Z,4.13
2022-09-12T22:52:18.916Z,4.10
2022-09-12T22:54:49.568Z,5.40
2022-09-12T22:57:18.620Z,4.10
2022-09-12T22:59:47.596Z,4.33
2022-09-12T23:02:16.412Z,4.60
2022-09-12T23:04:46.693Z,3.87
2022-09-12T23:07:15.919Z,4.13
2022-09-12T23:09:46.179Z,4.47
2022-09-12T23:12:17.228Z,4.30
2022-09-12T23:14:46.772Z,4.47
2022-09-12T23:17:15.663Z,4.53
2022-09-12T23:19:44.776Z,5.43
2022-09-12T23:22:14.053Z,3.90
2022-09-12T23:24:43.096Z,4.30
2022-09-12T23:27:12.122Z,3.53
2022-09-12T23:29:42.341Z,4.10
2022-09-12T23:32:11.659Z,3.67
2022-09-12T23:34:40.473Z,4.23
2022-09-12T23:37:09.446Z,4.30
2022-09-12T23:39:38.520Z,4.30
2022-09-12T23:42:07.881Z,4.00
2022-09-12T23:44:36.726Z,4.77
2022-09-12T23:47:07.343Z,3.53
2022-09-12T23:49:36.138Z,3.77
2022-09-12T23:52:05.411Z,3.87
2022-09-12T23:54:34.343Z,4.70
2022-09-12T23:57:03.306Z,4.60
2022-09-12T23:59:32.293Z,3.37
